createdAt,value
2022-09-05T00:00:14.604Z,1.73
2022-09-05T00:02:50.686Z,1.60
2022-09-05T00:06:01.742Z,1.17
2022-09-05T00:08:37.407Z,1.35
2022-09-05T00:11:43.230Z,1.52
2022-09-05T00:15:16.647Z,1.33
2022-09-05T00:20:18.189Z,1.30
2022-09-05T00:24:28.566Z,1.73
2022-09-05T00:24:42.077Z,2.22
2022-09-05T00:27:08.838Z,2.03
2022-09-05T00:31:05.654Z,2.42
2022-09-05T00:32:55.227Z,2.28
2022-09-05T00:35:42.214Z,3.28
2022-09-05T00:38:27.541Z,3.08
2022-09-05T00:41:14.201Z,2.90
2022-09-05T00:43:51.652Z,3.10
2022-09-05T00:46:35.480Z,3.08
2022-09-05T00:49:15.200Z,3.03
2022-09-05T00:52:29.536Z,2.88
2022-09-05T00:55:27.341Z,2.75
2022-09-05T00:58:27.634Z,3.65
2022-09-05T01:01:10.701Z,2.63
2022-09-05T01:04:28.548Z,2.90
2022-09-05T01:07:31.146Z,2.72
2022-09-05T01:10:33.461Z,2.30
2022-09-05T01:13:19.012Z,2.10
2022-09-05T01:16:20.224Z,1.90
2022-09-05T01:19:15.799Z,2.40
2022-09-05T01:21:57.836Z,2.53
2022-09-05T01:25:03.688Z,2.25
2022-09-05T01:28:46.165Z,1.75
2022-09-05T01:30:59.236Z,1.98
2022-09-05T01:33:38.436Z,1.80
2022-09-05T01:36:15.144Z,1.75
2022-09-05T01:40:11.634Z,2.03
2022-09-05T01:42:08.434Z,2.03
2022-09-05T01:45:40.169Z,1.70
2022-09-05T01:48:50.198Z,1.65
2022-09-05T01:52:04.808Z,1.52
2022-09-05T01:54:44.958Z,1.80
2022-09-05T01:57:36.251Z,1.58
2022-09-05T02:00:28.716Z,1.55
2022-09-05T02:03:31.544Z,1.88
2022-09-05T02:06:19.960Z,1.55
2022-09-05T02:09:11.004Z,1.48
2022-09-05T02:12:25.181Z,1.52
2022-09-05T02:15:29.364Z,1.50
2022-09-05T02:18:00.028Z,1.50
2022-09-05T02:20:45.312Z,1.33
2022-09-05T02:23:35.672Z,1.60
2022-09-05T02:27:00.825Z,1.70
2022-09-05T02:29:42.963Z,1.30
2022-09-05T02:32:40.525Z,1.50
2022-09-05T02:35:48.319Z,1.50
2022-09-05T02:45:00.139Z,1.40
2022-09-05T02:45:14.818Z,1.15
2022-09-05T02:45:21.363Z,1.55
2022-09-05T02:48:16.098Z,1.65
2022-09-05T02:57:23.172Z,1.33
2022-09-05T02:57:34.739Z,1.60
2022-09-05T02:58:05.288Z,1.52
2022-09-05T03:00:21.308Z,1.38
2022-09-05T03:03:28.859Z,1.20
2022-09-05T03:06:05.585Z,1.20
2022-09-05T03:08:38.777Z,1.13
2022-09-05T03:11:26.781Z,1.10
2022-09-05T03:14:32.338Z,1.00
2022-09-05T03:17:17.588Z,1.10
2022-09-05T03:20:25.396Z,1.10
2022-09-05T03:23:33.165Z,1.08
2022-09-05T03:26:44.461Z,1.27
2022-09-05T03:29:30.641Z,1.30
2022-09-05T03:32:26.022Z,1.08
2022-09-05T03:35:30.756Z,1.10
2022-09-05T03:38:39.464Z,1.17
2022-09-05T03:41:13.029Z,1.10
2022-09-05T03:43:59.426Z,1.13
2022-09-05T03:47:09.642Z,0.95
2022-09-05T03:53:30.983Z,1.13
2022-09-05T03:57:24.926Z,1.23
2022-09-05T03:57:27.456Z,1.58
2022-09-05T03:59:32.165Z,1.20
2022-09-05T04:04:33.803Z,1.33
2022-09-05T04:08:23.789Z,1.15
2022-09-05T04:08:42.613Z,0.90
2022-09-05T04:11:20.888Z,0.98
2022-09-05T04:13:55.074Z,0.93
2022-09-05T04:16:52.662Z,1.02
2022-09-05T04:19:40.923Z,0.90
2022-09-05T04:22:25.146Z,0.98
2022-09-05T04:25:19.907Z,1.20
2022-09-05T04:28:10.105Z,1.75
2022-09-05T04:31:19.861Z,1.10
2022-09-05T04:33:59.681Z,0.90
2022-09-05T04:36:58.568Z,1.33
2022-09-05T04:39:33.258Z,0.95
2022-09-05T04:44:43.288Z,1.08
2022-09-05T04:50:14.077Z,0.80
2022-09-05T04:52:54.884Z,1.00
2022-09-05T04:55:30.380Z,1.10
2022-09-05T04:58:00.872Z,1.10
2022-09-05T05:06:03.161Z,1.38
2022-09-05T05:06:18.909Z,1.00
2022-09-05T05:06:48.511Z,1.13
2022-09-05T05:09:26.691Z,1.15
2022-09-05T05:18:02.673Z,1.10
2022-09-05T05:18:08.956Z,1.55
2022-09-05T05:18:12.952Z,1.20
2022-09-05T05:20:51.197Z,1.10
2022-09-05T05:23:30.454Z,1.40
2022-09-05T05:26:02.872Z,1.40
2022-09-05T05:28:42.201Z,1.20
2022-09-05T05:31:24.273Z,1.05
2022-09-05T05:33:53.070Z,1.20
2022-09-05T05:37:06.133Z,1.45
2022-09-05T05:39:41.647Z,1.10
2022-09-05T05:42:21.506Z,1.27
2022-09-05T05:44:57.379Z,1.98
2022-09-05T05:47:43.539Z,1.30
2022-09-05T05:50:19.488Z,1.65
2022-09-05T05:53:33.646Z,1.58
2022-09-05T05:56:20.358Z,1.67
2022-09-05T05:59:22.631Z,2.03
2022-09-05T06:02:07.050Z,1.60
2022-09-05T06:05:04.361Z,1.58
2022-09-05T06:11:32.078Z,3.03
2022-09-05T06:14:50.316Z,1.70
2022-09-05T06:14:58.878Z,1.75
2022-09-05T06:18:01.938Z,2.58
2022-09-05T06:22:10.742Z,1.30
2022-09-05T06:24:21.231Z,1.65
2022-09-05T06:27:09.668Z,1.67
2022-09-05T06:30:01.101Z,1.85
2022-09-05T06:32:35.345Z,1.73
2022-09-05T06:35:26.548Z,1.30
2022-09-05T06:38:21.998Z,1.50
2022-09-05T06:41:13.234Z,1.98
2022-09-05T06:44:04.547Z,2.30
2022-09-05T06:46:50.626Z,1.88
2022-09-05T06:49:59.251Z,2.50
2022-09-05T06:53:23.940Z,3.20
2022-09-05T06:56:06.024Z,1.92
2022-09-05T06:59:10.118Z,1.40
2022-09-05T07:02:01.344Z,2.00
2022-09-05T07:05:24.689Z,2.05
2022-09-05T07:07:49.034Z,1.58
2022-09-05T07:10:40.697Z,2.00
2022-09-05T07:13:20.045Z,1.70
2022-09-05T07:16:35.640Z,2.17
2022-09-05T07:19:33.219Z,3.30
2022-09-05T07:22:18.510Z,1.75
2022-09-05T07:25:09.244Z,1.85
2022-09-05T07:28:28.532Z,1.95
2022-09-05T07:31:01.331Z,1.67
2022-09-05T07:33:31.118Z,1.30
2022-09-05T07:36:13.939Z,1.40
2022-09-05T07:38:50.293Z,2.35
2022-09-05T07:41:19.683Z,1.35
2022-09-05T07:43:49.079Z,2.22
2022-09-05T07:46:26.351Z,1.48
2022-09-05T07:49:05.060Z,1.25
2022-09-05T07:56:36.340Z,1.23
2022-09-05T07:56:59.651Z,1.10
2022-09-05T07:57:30.829Z,1.15
2022-09-05T08:00:25.564Z,0.90
2022-09-05T08:02:55.066Z,1.10
2022-09-05T08:05:31.054Z,1.48
2022-09-05T08:08:09.577Z,2.08
2022-09-05T08:11:23.314Z,1.02
2022-09-05T08:13:47.095Z,1.67
2022-09-05T08:16:17.414Z,1.30
2022-09-05T08:18:52.708Z,1.23
2022-09-05T08:21:27.547Z,0.77
2022-09-05T08:24:20.421Z,1.50
2022-09-05T08:27:16.405Z,1.55
2022-09-05T08:29:46.156Z,1.70
2022-09-05T08:32:38.825Z,1.17
2022-09-05T08:35:17.180Z,1.10
2022-09-05T08:37:45.267Z,1.67
2022-09-05T08:40:22.673Z,1.15
2022-09-05T08:46:18.589Z,1.00
2022-09-05T08:46:39.703Z,1.58
2022-09-05T08:49:48.840Z,1.20
2022-09-05T08:52:24.752Z,1.27
2022-09-05T08:55:07.424Z,1.38
2022-09-05T08:58:05.732Z,1.55
2022-09-05T09:00:55.623Z,1.35
2022-09-05T09:03:53.851Z,1.70
2022-09-05T09:06:23.725Z,1.27
2022-09-05T09:09:28.111Z,1.30
2022-09-05T09:12:06.116Z,1.10
2022-09-05T09:15:08.193Z,1.20
2022-09-05T09:17:51.612Z,1.45
2022-09-05T09:20:25.036Z,1.40
2022-09-05T09:23:32.657Z,1.30
2022-09-05T09:26:17.887Z,1.50
2022-09-05T09:28:55.533Z,1.48
2022-09-05T09:31:37.165Z,1.10
2022-09-05T09:34:26.115Z,2.08
2022-09-05T09:37:02.960Z,1.30
2022-09-05T09:39:51.742Z,1.55
2022-09-05T09:42:33.123Z,1.30
2022-09-05T09:45:28.512Z,1.30
2022-09-05T09:48:24.651Z,1.02
2022-09-05T09:51:26.957Z,1.60
2022-09-05T09:54:05.899Z,1.00
2022-09-05T09:56:52.343Z,1.48
2022-09-05T09:59:53.927Z,1.00
2022-09-05T10:04:15.870Z,1.27
2022-09-05T10:10:57.759Z,1.20
2022-09-05T10:10:58.388Z,1.17
2022-09-05T10:14:56.186Z,1.40
2022-09-05T10:17:47.913Z,1.17
2022-09-05T10:20:29.467Z,1.17
2022-09-05T10:23:17.927Z,0.98
2022-09-05T10:26:02.070Z,1.15
2022-09-05T10:29:36.804Z,1.40
2022-09-05T10:34:49.087Z,1.83
2022-09-05T10:35:27.494Z,1.25
2022-09-05T10:38:23.515Z,1.17
2022-09-05T10:41:20.521Z,1.85
2022-09-05T10:44:03.863Z,2.60
2022-09-05T10:46:56.124Z,1.30
2022-09-05T10:49:30.047Z,1.00
2022-09-05T10:52:18.498Z,1.10
2022-09-05T10:55:14.137Z,1.23
2022-09-05T10:57:57.437Z,1.40
2022-09-05T11:02:22.514Z,0.90
2022-09-05T11:04:04.349Z,1.05
2022-09-05T11:06:46.613Z,1.33
2022-09-05T11:09:26.057Z,1.02
2022-09-05T11:12:03.525Z,0.70
2022-09-05T11:14:53.921Z,0.80
2022-09-05T11:17:44.241Z,0.90
2022-09-05T11:20:52.789Z,0.88
2022-09-05T11:23:25.633Z,0.80
2022-09-05T11:26:14.885Z,1.10
2022-09-05T11:29:00.861Z,1.35
2022-09-05T11:34:29.988Z,1.13
2022-09-05T11:39:51.545Z,1.65
2022-09-05T11:40:02.214Z,0.90
2022-09-05T11:41:38.743Z,1.45
2022-09-05T11:44:24.735Z,1.20
2022-09-05T11:47:29.699Z,0.70
2022-09-05T11:50:01.948Z,1.08
2022-09-05T11:52:59.640Z,1.02
2022-09-05T11:56:04.128Z,1.20
2022-09-05T11:58:45.334Z,0.80
2022-09-05T12:01:54.279Z,1.25
2022-09-05T12:05:48.993Z,1.25
2022-09-05T12:08:20.769Z,1.10
2022-09-05T12:10:48.421Z,0.90
2022-09-05T12:13:29.320Z,0.93
2022-09-05T12:16:08.388Z,1.08
2022-09-05T12:19:02.855Z,2.33
2022-09-05T12:22:09.006Z,1.60
2022-09-05T12:25:27.322Z,1.00
2022-09-05T12:29:03.203Z,1.10
2022-09-05T12:32:36.563Z,1.02
2022-09-05T12:36:07.680Z,1.08
2022-09-05T12:40:52.913Z,0.85
2022-09-05T12:41:35.077Z,1.35
2022-09-05T12:44:39.118Z,1.15
2022-09-05T12:45:58.857Z,1.00
2022-09-05T12:48:54.562Z,0.90
2022-09-05T12:51:46.795Z,1.20
2022-09-05T12:54:33.490Z,0.85
2022-09-05T12:59:27.065Z,0.90
2022-09-05T13:03:01.345Z,0.95
2022-09-05T13:03:28.648Z,0.88
2022-09-05T13:06:25.127Z,1.55
2022-09-05T13:09:07.997Z,1.10
2022-09-05T13:15:02.405Z,1.15
2022-09-05T13:15:22.800Z,1.10
2022-09-05T13:18:15.320Z,1.80
2022-09-05T13:20:51.442Z,1.17
2022-09-05T13:23:24.233Z,0.95
2022-09-05T13:25:58.437Z,0.90
2022-09-05T13:28:34.550Z,1.95
2022-09-05T13:34:39.165Z,1.65
2022-09-05T13:37:58.255Z,1.10
2022-09-05T13:37:58.669Z,1.10
2022-09-05T13:39:48.578Z,0.95
2022-09-05T13:42:19.992Z,1.10
2022-09-05T13:44:51.482Z,0.82
2022-09-05T13:48:04.956Z,1.10
2022-09-05T13:50:40.312Z,1.00
2022-09-05T13:53:27.988Z,1.30
2022-09-05T13:56:24.116Z,1.00
2022-09-05T13:58:59.939Z,1.20
2022-09-05T14:02:26.322Z,0.93
2022-09-05T14:05:06.391Z,0.90
2022-09-05T14:07:54.102Z,1.13
2022-09-05T14:10:35.885Z,1.02
2022-09-05T14:13:19.786Z,1.30
2022-09-05T14:16:07.776Z,1.17
2022-09-05T14:19:06.535Z,1.50
2022-09-05T14:21:37.241Z,1.00
2022-09-05T14:24:16.960Z,1.13
2022-09-05T14:27:03.032Z,1.20
2022-09-05T14:29:41.010Z,1.00
2022-09-05T14:37:42.039Z,1.50
2022-09-05T14:37:45.732Z,1.50
2022-09-05T14:38:32.841Z,1.10
2022-09-05T14:41:15.581Z,1.70
2022-09-05T14:44:07.782Z,1.58
2022-09-05T14:46:49.830Z,1.08
2022-09-05T14:49:22.767Z,1.40
2022-09-05T14:51:53.004Z,1.65
2022-09-05T15:00:12.207Z,1.73
2022-09-05T15:01:53.380Z,1.27
2022-09-05T15:03:03.901Z,1.52
2022-09-05T15:05:40.787Z,1.30
2022-09-05T15:08:18.278Z,1.42
2022-09-05T15:12:20.314Z,1.20
2022-09-05T15:14:03.549Z,1.80
2022-09-05T15:16:35.502Z,2.00
2022-09-05T15:19:02.373Z,1.38
2022-09-05T15:21:41.287Z,1.10
2022-09-05T15:24:20.027Z,2.00
2022-09-05T15:26:57.309Z,1.23
2022-09-05T15:29:26.988Z,1.10
2022-09-05T15:32:13.652Z,3.03
2022-09-05T15:34:40.801Z,1.10
2022-09-05T15:37:31.913Z,1.30
2022-09-05T15:40:23.515Z,1.40
2022-09-05T15:43:01.975Z,1.30
2022-09-05T15:45:37.839Z,1.00
2022-09-05T15:48:26.547Z,0.98
2022-09-05T15:51:07.817Z,1.00
2022-09-05T15:53:37.479Z,1.55
2022-09-05T15:56:10.789Z,1.50
2022-09-05T15:58:53.065Z,1.60
2022-09-05T16:01:30.559Z,1.25
2022-09-05T16:07:12.189Z,1.30
2022-09-05T16:10:36.593Z,0.80
2022-09-05T16:10:38.136Z,1.00
2022-09-05T16:12:49.440Z,0.90
2022-09-05T16:19:01.561Z,1.10
2022-09-05T16:23:18.641Z,1.40
2022-09-05T16:23:28.691Z,1.30
2022-09-05T16:24:05.549Z,1.50
2022-09-05T16:26:49.550Z,1.98
2022-09-05T16:29:26.713Z,1.50
2022-09-05T16:32:02.190Z,1.77
2022-09-05T16:34:52.529Z,1.45
2022-09-05T16:37:34.446Z,1.10
2022-09-05T16:40:14.621Z,2.13
2022-09-05T16:43:00.022Z,1.08
2022-09-05T16:45:39.050Z,1.20
2022-09-05T16:51:35.392Z,1.20
2022-09-05T16:54:11.785Z,1.20
2022-09-05T16:56:54.799Z,1.40
2022-09-05T16:59:24.405Z,1.60
2022-09-05T17:02:11.936Z,1.10
2022-09-05T17:05:07.376Z,1.50
2022-09-05T17:07:34.168Z,1.25
2022-09-05T17:10:16.624Z,0.98
2022-09-05T17:15:14.726Z,1.10
2022-09-05T17:18:20.516Z,1.17
2022-09-05T17:20:53.949Z,1.20
2022-09-05T17:27:19.887Z,1.70
2022-09-05T17:29:33.613Z,1.38
2022-09-05T17:32:43.779Z,1.10
2022-09-05T17:35:30.921Z,0.95
2022-09-05T17:38:25.584Z,0.90
2022-09-05T17:41:15.189Z,0.90
2022-09-05T17:43:42.509Z,1.15
2022-09-05T17:46:26.081Z,1.10
2022-09-05T17:49:18.347Z,1.38
2022-09-05T17:51:53.008Z,1.00
2022-09-05T17:54:28.414Z,1.45
2022-09-05T17:56:55.336Z,1.10
2022-09-05T17:59:23.543Z,1.20
2022-09-05T18:02:03.051Z,1.83
2022-09-05T18:04:47.968Z,1.30
2022-09-05T18:07:26.843Z,1.10
2022-09-05T18:10:12.793Z,2.13
2022-09-05T18:15:38.342Z,2.30
2022-09-05T18:18:10.778Z,3.72
2022-09-05T18:21:21.428Z,5.18
2022-09-05T18:23:54.838Z,3.75
2022-09-05T18:26:25.067Z,2.47
2022-09-05T18:28:59.288Z,2.65
2022-09-05T18:31:41.646Z,2.60
2022-09-05T18:34:31.781Z,3.13
2022-09-05T18:39:37.985Z,2.60
2022-09-05T18:42:33.280Z,3.13
2022-09-05T18:45:15.269Z,2.20
2022-09-05T18:47:51.225Z,1.92
2022-09-05T18:50:27.090Z,2.10
2022-09-05T18:53:09.349Z,2.30
2022-09-05T18:56:12.254Z,2.13
2022-09-05T18:59:09.442Z,2.17
2022-09-05T19:01:42.073Z,2.08
2022-09-05T19:04:40.335Z,2.03
2022-09-05T19:07:12.094Z,2.20
2022-09-05T19:09:56.776Z,3.33
2022-09-05T19:12:35.138Z,2.30
2022-09-05T19:15:25.991Z,2.10
2022-09-05T19:17:59.431Z,2.00
2022-09-05T19:21:11.857Z,2.55
2022-09-05T19:24:03.108Z,2.38
2022-09-05T19:26:33.656Z,2.55
2022-09-05T19:36:45.998Z,2.65
2022-09-05T19:37:05.313Z,2.55
2022-09-05T19:37:05.767Z,2.03
2022-09-05T19:37:48.728Z,2.33
2022-09-05T19:45:34.402Z,2.63
2022-09-05T19:47:31.255Z,2.58
2022-09-05T19:47:34.264Z,2.47
2022-09-05T19:49:11.035Z,2.33
2022-09-05T19:51:41.097Z,2.63
2022-09-05T19:54:22.022Z,2.85
2022-09-05T19:56:48.969Z,3.97
2022-09-05T19:59:24.464Z,2.65
2022-09-05T20:01:53.125Z,2.00
2022-09-05T20:04:21.472Z,2.10
2022-09-05T20:06:49.979Z,2.00
2022-09-05T20:09:24.458Z,2.25
2022-09-05T20:11:53.043Z,2.00
2022-09-05T20:14:31.301Z,2.53
2022-09-05T20:17:28.714Z,2.38
2022-09-05T20:20:18.532Z,3.08
2022-09-05T20:23:06.568Z,3.60
2022-09-05T20:25:39.852Z,3.25
2022-09-05T20:28:13.488Z,2.92
2022-09-05T20:31:08.346Z,3.40
2022-09-05T20:33:50.201Z,4.03
2022-09-05T20:43:15.326Z,3.70
2022-09-05T20:43:21.750Z,3.97
2022-09-05T20:43:32.825Z,3.65
2022-09-05T20:44:55.443Z,4.03
2022-09-05T20:50:44.392Z,3.93
2022-09-05T20:54:14.297Z,4.30
2022-09-05T20:54:28.945Z,5.05
2022-09-05T20:56:33.248Z,4.32
2022-09-05T20:59:00.920Z,4.72
2022-09-05T21:01:29.543Z,6.07
2022-09-05T21:03:59.337Z,5.93
2022-09-05T21:06:34.683Z,5.75
2022-09-05T21:09:25.202Z,4.72
2022-09-05T21:11:58.568Z,5.65
2022-09-05T21:14:28.890Z,4.70
2022-09-05T21:17:15.134Z,5.00
2022-09-05T21:19:43.809Z,6.82
2022-09-05T21:22:20.652Z,6.30
2022-09-05T21:25:06.655Z,5.78
2022-09-05T21:27:33.635Z,5.50
2022-09-05T21:30:27.123Z,4.97
2022-09-05T21:33:18.976Z,5.10
2022-09-05T21:35:54.409Z,6.30
2022-09-05T21:38:32.276Z,5.32
2022-09-05T21:41:04.229Z,4.47
2022-09-05T21:47:38.923Z,4.72
2022-09-05T21:47:49.425Z,6.03
2022-09-05T21:49:09.913Z,7.70
2022-09-05T21:51:38.666Z,6.95
2022-09-05T21:57:39.030Z,7.27
2022-09-05T21:59:29.240Z,8.63
2022-09-05T21:59:55.615Z,9.05
2022-09-05T22:02:25.711Z,7.90
2022-09-05T22:05:02.955Z,5.63
2022-09-05T22:07:34.503Z,4.90
2022-09-05T22:10:06.583Z,5.55
2022-09-05T22:12:35.777Z,4.10
2022-09-05T22:15:26.297Z,4.13
2022-09-05T22:18:16.106Z,3.00
2022-09-05T22:20:51.270Z,3.35
2022-09-05T22:23:37.018Z,3.88
2022-09-05T22:26:07.808Z,2.72
2022-09-05T22:28:38.339Z,2.42
2022-09-05T22:31:07.224Z,2.88
2022-09-05T22:33:35.907Z,2.90
2022-09-05T22:36:03.340Z,3.15
2022-09-05T22:38:30.359Z,2.80
2022-09-05T22:40:57.595Z,3.60
2022-09-05T22:43:25.067Z,2.55
2022-09-05T22:45:56.130Z,3.20
2022-09-05T22:48:23.954Z,2.63
2022-09-05T22:50:51.045Z,2.50
2022-09-05T22:53:17.913Z,3.00
2022-09-05T22:55:45.019Z,3.50
2022-09-05T22:58:14.081Z,2.92
2022-09-05T23:00:41.678Z,2.70
2022-09-05T23:03:08.525Z,3.38
2022-09-05T23:05:35.794Z,3.30
2022-09-05T23:08:04.529Z,3.20
2022-09-05T23:10:31.786Z,3.73
2022-09-05T23:12:59.245Z,3.53
2022-09-05T23:15:26.748Z,3.50
2022-09-05T23:17:55.466Z,3.60
2022-09-05T23:20:23.548Z,3.22
2022-09-05T23:22:50.956Z,2.95
2022-09-05T23:25:18.433Z,3.72
2022-09-05T23:27:45.828Z,3.20
2022-09-05T23:30:12.739Z,3.05
2022-09-05T23:32:47.784Z,2.67
2022-09-05T23:35:16.053Z,2.33
2022-09-05T23:37:47.586Z,2.55
2022-09-05T23:40:17.750Z,2.13
2022-09-05T23:42:52.750Z,2.40
2022-09-05T23:45:19.758Z,2.30
2022-09-05T23:47:47.190Z,2.85
2022-09-05T23:50:15.321Z,2.63
2022-09-05T23:52:43.871Z,2.42
2022-09-05T23:55:13.369Z,2.85
2022-09-05T23:57:41.328Z,3.00
